Atlanta, Georgia
Traffic Map
Current Weather Conditions
Atlanta, Georgia
Few Clouds
Few Clouds

Feels Like: 3°
Wind Chill: Ceiling: Unl
Heat Index: Visibility: 10mi
Dew Point: Wind: 16mph
Humidity: 63% Direction: 310° (NW)
Pressure: 30.06in Gusts: 0mph
Raw Report DataKATL 261352Z 31014KT 10SM FEW100 07/00 A3006 RMK AO2 SLP181 T00670000
Traffic Incident Summary
Active as of:
Severity:
Category:
InformationThere was an issue retrieving the traffic information for this location. Please try a different location or try again shortly.
Advertisements
Track Severe Weather on mobile